createdAt,value
2023-04-15T00:01:12.128Z,97301.38
2023-04-15T00:03:39.535Z,97299.44
2023-04-15T00:06:07.115Z,97291.56
2023-04-15T00:08:34.881Z,97284.41
2023-04-15T00:11:05.856Z,97288.88
2023-04-15T00:13:37.605Z,97299.25
2023-04-15T00:16:04.968Z,97284.41
2023-04-15T00:18:32.203Z,97286.22
2023-04-15T00:20:59.757Z,97290.94
2023-04-15T00:23:28.479Z,97289.47
2023-04-15T00:25:55.663Z,97286.69
2023-04-15T00:28:22.876Z,97289.16
2023-04-15T00:30:50.465Z,97288.97
2023-04-15T00:33:17.773Z,97289.84
2023-04-15T00:35:44.896Z,97288.19
2023-04-15T00:38:13.270Z,97290.06
2023-04-15T00:40:42.847Z,97289.03
2023-04-15T00:43:10.441Z,97291.06
2023-04-15T00:45:37.453Z,97289.59
2023-04-15T00:48:05.898Z,97290.63
2023-04-15T00:50:33.640Z,97283.88
2023-04-15T00:53:01.303Z,97287.72
2023-04-15T00:55:28.272Z,97290.41
2023-04-15T00:57:56.630Z,97288.00
2023-04-15T01:00:24.249Z,97282.91
2023-04-15T01:02:51.610Z,97284.13
2023-04-15T01:05:19.811Z,97287.38
2023-04-15T01:07:48.633Z,97288.13
2023-04-15T01:10:15.665Z,97283.31
2023-04-15T01:12:44.607Z,97281.72
2023-04-15T01:15:11.717Z,97278.91
2023-04-15T01:17:39.803Z,97272.78
2023-04-15T01:20:10.893Z,97267.66
2023-04-15T01:22:38.578Z,97261.38
2023-04-15T01:25:18.278Z,97263.16
2023-04-15T01:27:45.746Z,97255.38
2023-04-15T01:30:12.756Z,97261.69
2023-04-15T01:32:39.765Z,97255.97
2023-04-15T01:35:07.829Z,97260.66
2023-04-15T01:37:35.877Z,97267.56
2023-04-15T01:40:03.427Z,97264.09
2023-04-15T01:42:30.559Z,97265.75
2023-04-15T01:44:57.753Z,97268.16
2023-04-15T01:47:24.726Z,97272.03
2023-04-15T01:49:51.752Z,97267.56
2023-04-15T01:52:19.552Z,97266.09
2023-04-15T01:54:46.714Z,97266.31
2023-04-15T01:57:13.840Z,97268.16
2023-04-15T01:59:41.106Z,97271.84
2023-04-15T02:02:08.248Z,97268.81
2023-04-15T02:04:35.262Z,97266.19
2023-04-15T02:07:02.256Z,97262.72
2023-04-15T02:09:30.037Z,97269.44
2023-04-15T02:11:57.428Z,97268.41
2023-04-15T02:14:24.621Z,97271.06
2023-04-15T02:16:51.732Z,97261.34
2023-04-15T02:19:18.991Z,97264.38
2023-04-15T02:21:46.062Z,97259.09
2023-04-15T02:24:13.350Z,97261.13
2023-04-15T02:26:41.833Z,97262.94
2023-04-15T02:29:08.889Z,97266.63
2023-04-15T02:31:40.549Z,97271.69
2023-04-15T02:34:08.312Z,97267.81
2023-04-15T02:36:35.335Z,97268.84
2023-04-15T02:39:02.940Z,97272.31
2023-04-15T02:41:30.646Z,97268.84
2023-04-15T02:43:58.279Z,97264.78
2023-04-15T02:46:26.385Z,97270.09
2023-04-15T02:48:53.943Z,97270.88
2023-04-15T02:51:23.031Z,97268.47
2023-04-15T02:53:50.572Z,97260.31
2023-04-15T02:56:19.532Z,97259.69
2023-04-15T02:58:46.940Z,97257.47
2023-04-15T03:01:14.601Z,97261.53
2023-04-15T03:03:42.461Z,97260.94
2023-04-15T03:06:09.798Z,97264.78
2023-04-15T03:08:37.388Z,97263.19
2023-04-15T03:11:05.126Z,97260.72
2023-04-15T03:13:34.162Z,97270.09
2023-04-15T03:16:09.268Z,97266.00
2023-04-15T03:18:36.355Z,97267.66
2023-04-15T03:21:04.152Z,97252.19
2023-04-15T03:23:35.119Z,97261.16
2023-04-15T03:26:03.630Z,97247.72
2023-04-15T03:28:32.790Z,97254.03
2023-04-15T03:31:00.840Z,97253.41
2023-04-15T03:33:27.868Z,97254.03
2023-04-15T03:35:54.846Z,97255.06
2023-04-15T03:38:21.790Z,97255.84
2023-04-15T03:40:49.221Z,97258.69
2023-04-15T03:43:16.607Z,97259.53
2023-04-15T03:45:43.586Z,97263.97
2023-04-15T03:48:16.623Z,97261.34
2023-04-15T03:50:44.793Z,97253.81
2023-04-15T03:53:11.772Z,97249.75
2023-04-15T03:55:38.704Z,97257.06
2023-04-15T03:58:05.757Z,97255.44
2023-04-15T04:00:32.948Z,97257.88
2023-04-15T04:03:00.371Z,97252.59
2023-04-15T04:05:27.515Z,97248.94
2023-04-15T04:07:54.480Z,97252.59
2023-04-15T04:10:21.562Z,97249.34
2023-04-15T04:12:48.569Z,97254.84
2023-04-15T04:15:15.954Z,97259.31
2023-04-15T04:17:43.308Z,97256.66
2023-04-15T04:20:10.497Z,97259.69
2023-04-15T04:22:43.778Z,97256.06
2023-04-15T04:25:11.351Z,97262.72
2023-04-15T04:27:38.460Z,97267.53
2023-04-15T04:30:06.909Z,97260.28
2023-04-15T04:32:33.923Z,97266.56
2023-04-15T04:35:00.986Z,97266.75
2023-04-15T04:37:28.049Z,97268.22
2023-04-15T04:39:55.058Z,97268.00
2023-04-15T04:42:22.535Z,97274.91
2023-04-15T04:44:49.516Z,97276.25
2023-04-15T04:47:16.532Z,97284.16
2023-04-15T04:49:43.536Z,97278.88
2023-04-15T04:52:10.811Z,97283.75
2023-04-15T04:54:38.020Z,97270.94
2023-04-15T04:57:05.119Z,97282.53
2023-04-15T04:59:32.099Z,97280.09
2023-04-15T05:01:59.450Z,97278.16
2023-04-15T05:04:26.540Z,97279.06
2023-04-15T05:06:53.741Z,97286.41
2023-04-15T05:09:20.989Z,97286.63
2023-04-15T05:11:47.940Z,97286.41
2023-04-15T05:14:15.160Z,97288.66
2023-04-15T05:16:42.405Z,97282.13
2023-04-15T05:19:09.437Z,97283.56
2023-04-15T05:21:38.397Z,97276.25
2023-04-15T05:24:07.117Z,97281.06
2023-04-15T05:26:34.069Z,97278.91
2023-04-15T05:29:01.644Z,97283.03
2023-04-15T05:31:29.326Z,97287.44
2023-04-15T05:33:56.813Z,97290.34
2023-04-15T05:36:23.730Z,97295.47
2023-04-15T05:38:51.124Z,97301.09
2023-04-15T05:41:19.830Z,97305.13
2023-04-15T05:43:47.315Z,97296.59
2023-04-15T05:46:14.307Z,97300.63
2023-04-15T05:48:41.649Z,97304.66
2023-04-15T05:51:08.731Z,97294.34
2023-04-15T05:53:35.908Z,97305.84
2023-04-15T05:56:02.902Z,97317.16
2023-04-15T05:58:30.130Z,97316.28
2023-04-15T06:00:57.361Z,97305.56
2023-04-15T06:03:24.574Z,97308.28
2023-04-15T06:05:51.846Z,97314.72
2023-04-15T06:08:19.575Z,97312.69
2023-04-15T06:10:46.666Z,97312.28
2023-04-15T06:13:13.619Z,97301.78
2023-04-15T06:15:40.544Z,97305.41
2023-04-15T06:18:07.495Z,97299.53
2023-04-15T06:20:34.905Z,97302.78
2023-04-15T06:23:01.959Z,97315.34
2023-04-15T06:25:29.181Z,97315.72
2023-04-15T06:27:56.213Z,97312.66
2023-04-15T06:30:24.456Z,97309.66
2023-04-15T06:32:51.715Z,97307.66
2023-04-15T06:35:19.091Z,97310.66
2023-04-15T06:37:46.265Z,97310.44
2023-04-15T06:40:13.834Z,97312.91
2023-04-15T06:42:41.853Z,97320.03
2023-04-15T06:45:09.640Z,97320.50
2023-04-15T06:47:36.867Z,97312.75
2023-04-15T06:50:04.217Z,97320.06
2023-04-15T06:52:32.246Z,97320.28
2023-04-15T06:54:59.607Z,97319.47
2023-04-15T06:57:26.644Z,97315.44
2023-04-15T06:59:54.659Z,97325.38
2023-04-15T07:02:22.181Z,97322.50
2023-04-15T07:04:49.166Z,97321.50
2023-04-15T07:07:17.540Z,97320.47
2023-04-15T07:09:45.165Z,97325.75
2023-04-15T07:12:12.200Z,97321.72
2023-04-15T07:14:39.726Z,97320.09
2023-04-15T07:17:07.733Z,97323.75
2023-04-15T07:19:34.868Z,97316.44
2023-04-15T07:22:01.954Z,97317.84
2023-04-15T07:24:29.014Z,97315.63
2023-04-15T07:26:59.554Z,97317.03
2023-04-15T07:29:28.146Z,97311.75
2023-04-15T07:31:57.323Z,97313.59
2023-04-15T07:34:24.693Z,97314.78
2023-04-15T07:36:52.143Z,97312.31
2023-04-15T07:39:21.466Z,97314.16
2023-04-15T07:41:49.250Z,97300.94
2023-04-15T07:44:16.240Z,97304.22
2023-04-15T07:46:43.251Z,97312.13
2023-04-15T07:49:10.688Z,97300.56
2023-04-15T07:51:38.474Z,97316.44
2023-04-15T07:54:05.408Z,97309.94
2023-04-15T07:56:32.641Z,97310.13
2023-04-15T07:59:02.258Z,97318.06
2023-04-15T08:01:29.789Z,97302.50
2023-04-15T08:03:57.381Z,97301.94
2023-04-15T08:06:24.450Z,97302.41
2023-04-15T08:08:52.027Z,97297.28
2023-04-15T08:11:18.974Z,97307.44
2023-04-15T08:13:47.340Z,97309.91
2023-04-15T08:16:42.399Z,97297.88
2023-04-15T08:19:09.774Z,97298.09
2023-04-15T08:21:36.858Z,97300.75
2023-04-15T08:24:03.992Z,97301.19
2023-04-15T08:26:31.365Z,97311.94
2023-04-15T08:28:58.713Z,97302.69
2023-04-15T08:31:27.839Z,97306.22
2023-04-15T08:33:57.663Z,97310.47
2023-04-15T08:36:25.050Z,97307.50
2023-04-15T08:38:55.224Z,97306.22
2023-04-15T08:41:25.475Z,97306.84
2023-04-15T08:44:04.749Z,97304.22
2023-04-15T08:46:35.051Z,97306.25
2023-04-15T08:49:05.135Z,97307.03
2023-04-15T08:51:34.100Z,97308.59
2023-04-15T08:54:02.539Z,97299.34
2023-04-15T08:56:35.039Z,97307.56
2023-04-15T08:59:02.692Z,97307.88
2023-04-15T09:01:30.166Z,97306.69
2023-04-15T09:03:59.320Z,97299.84
2023-04-15T09:06:27.145Z,97296.78
2023-04-15T09:08:54.332Z,97306.41
2023-04-15T09:11:22.658Z,97304.41
2023-04-15T09:13:50.730Z,97304.34
2023-04-15T09:16:17.771Z,97309.00
2023-04-15T09:18:45.235Z,97310.44
2023-04-15T09:21:17.781Z,97308.22
2023-04-15T09:24:02.561Z,97309.97
2023-04-15T09:26:36.242Z,97313.59
2023-04-15T09:29:25.158Z,97313.72
2023-04-15T09:31:52.886Z,97312.63
2023-04-15T09:34:20.731Z,97313.97
2023-04-15T09:36:49.227Z,97315.91
2023-04-15T09:39:17.927Z,97312.91
2023-04-15T09:41:45.199Z,97312.63
2023-04-15T09:44:27.872Z,97316.41
2023-04-15T09:46:54.954Z,97315.31
2023-04-15T09:49:24.922Z,97313.81
2023-04-15T09:52:04.574Z,97312.44
2023-04-15T09:54:41.028Z,97317.66
2023-04-15T09:57:10.592Z,97303.94
2023-04-15T09:59:37.634Z,97310.03
2023-04-15T10:02:07.103Z,97313.59
2023-04-15T10:04:42.128Z,97303.56
2023-04-15T10:07:10.452Z,97308.16
2023-04-15T10:09:39.753Z,97320.66
2023-04-15T10:12:07.268Z,97312.34
2023-04-15T10:14:38.566Z,97327.91
2023-04-15T10:17:06.459Z,97318.94
2023-04-15T10:19:36.618Z,97321.91
2023-04-15T10:22:04.024Z,97324.16
2023-04-15T10:24:34.485Z,97323.41
2023-04-15T10:27:03.807Z,97327.41
2023-04-15T10:29:31.145Z,97330.41
2023-04-15T10:31:59.939Z,97330.44
2023-04-15T10:34:28.126Z,97330.00
2023-04-15T10:37:06.108Z,97327.66
2023-04-15T10:39:44.404Z,97334.81
2023-04-15T10:42:17.584Z,97337.78
2023-04-15T10:44:53.797Z,97338.13
2023-04-15T10:47:23.555Z,97340.56
2023-04-15T10:49:58.506Z,97346.63
2023-04-15T10:52:27.731Z,97344.44
2023-04-15T10:55:14.349Z,97340.31
2023-04-15T10:57:45.661Z,97345.50
2023-04-15T11:00:17.535Z,97351.28
2023-04-15T11:02:57.538Z,97352.13
2023-04-15T11:05:52.280Z,97343.28
2023-04-15T11:08:59.297Z,97340.69
2023-04-15T11:12:09.527Z,97336.38
2023-04-15T11:14:43.515Z,97342.84
2023-04-15T11:17:10.688Z,97350.16
2023-04-15T11:19:40.973Z,97345.94
2023-04-15T11:22:11.696Z,97347.41
2023-04-15T11:24:50.550Z,97353.16
2023-04-15T11:27:24.697Z,97360.47
2023-04-15T11:29:52.969Z,97353.75
2023-04-15T11:32:21.955Z,97358.22
2023-04-15T11:34:49.222Z,97365.53
2023-04-15T11:37:16.486Z,97361.25
2023-04-15T11:39:43.531Z,97372.34
2023-04-15T11:42:19.873Z,97367.69
2023-04-15T11:44:46.894Z,97373.38
2023-04-15T11:47:26.315Z,97381.50
2023-04-15T11:49:53.384Z,97374.88
2023-04-15T11:52:20.651Z,97381.59
2023-04-15T11:54:47.904Z,97388.44
2023-04-15T11:57:15.378Z,97394.66
2023-04-15T11:59:45.829Z,97402.47
2023-04-15T12:02:14.357Z,97391.63
2023-04-15T12:04:42.312Z,97398.53
2023-04-15T12:07:09.584Z,97392.22
2023-04-15T12:09:40.088Z,97393.38
2023-04-15T12:12:07.139Z,97387.56
2023-04-15T12:14:34.535Z,97396.63
2023-04-15T12:17:06.876Z,97396.56
2023-04-15T12:19:40.341Z,97399.50
2023-04-15T12:22:11.933Z,97401.41
2023-04-15T12:24:40.000Z,97406.28
2023-04-15T12:27:09.735Z,97404.03
2023-04-15T12:29:39.281Z,97406.38
2023-04-15T12:32:21.015Z,97410.16
2023-04-15T12:34:54.324Z,97416.88
2023-04-15T12:37:21.575Z,97422.94
2023-04-15T12:39:49.795Z,97422.19
2023-04-15T12:42:18.397Z,97436.22
2023-04-15T12:44:45.797Z,97441.56
2023-04-15T12:47:13.721Z,97447.22
2023-04-15T12:49:41.358Z,97451.31
2023-04-15T12:52:08.425Z,97450.63
2023-04-15T12:54:36.154Z,97463.72
2023-04-15T12:57:06.888Z,97455.75
2023-04-15T12:59:35.325Z,97465.09
2023-04-15T13:02:03.214Z,97476.91
2023-04-15T13:04:31.069Z,97483.13
2023-04-15T13:06:58.572Z,97476.97
2023-04-15T13:09:25.880Z,97486.47
2023-04-15T13:11:53.059Z,97480.44
2023-04-15T13:14:20.155Z,97479.81
2023-04-15T13:16:47.373Z,97484.75
2023-04-15T13:19:14.361Z,97487.00
2023-04-15T13:21:41.602Z,97488.19
2023-04-15T13:24:09.703Z,97491.75
2023-04-15T13:26:36.774Z,97499.22
2023-04-15T13:29:05.238Z,97501.59
2023-04-15T13:31:32.278Z,97503.00
2023-04-15T13:33:59.552Z,97504.13
2023-04-15T13:36:27.275Z,97515.44
2023-04-15T13:38:54.469Z,97512.75
2023-04-15T13:41:21.446Z,97512.22
2023-04-15T13:43:48.477Z,97518.19
2023-04-15T13:46:16.168Z,97516.09
2023-04-15T13:48:43.175Z,97513.53
2023-04-15T13:51:10.104Z,97516.84
2023-04-15T13:53:38.999Z,97524.69
2023-04-15T13:56:10.539Z,97527.56
2023-04-15T13:58:38.659Z,97531.13
2023-04-15T14:01:07.276Z,97525.75
2023-04-15T14:03:37.995Z,97530.31
2023-04-15T14:06:06.475Z,97527.09
2023-04-15T14:08:33.857Z,97531.22
2023-04-15T14:11:01.040Z,97526.91
2023-04-15T14:13:28.135Z,97529.56
2023-04-15T14:15:55.539Z,97537.72
2023-04-15T14:18:22.757Z,97534.03
2023-04-15T14:20:49.703Z,97539.06
2023-04-15T14:23:16.701Z,97547.56
2023-04-15T14:25:45.059Z,97550.66
2023-04-15T14:28:13.840Z,97559.75
2023-04-15T14:30:40.892Z,97563.69
2023-04-15T14:33:07.897Z,97573.84
2023-04-15T14:35:35.113Z,97574.28
2023-04-15T14:38:02.169Z,97583.66
2023-04-15T14:40:29.295Z,97581.19
2023-04-15T14:42:56.333Z,97593.63
2023-04-15T14:45:23.845Z,97588.09
2023-04-15T14:47:51.086Z,97588.28
2023-04-15T14:50:18.209Z,97589.16
2023-04-15T14:52:45.399Z,97584.28
2023-04-15T14:55:13.756Z,97589.75
2023-04-15T14:57:42.342Z,97602.38
2023-04-15T15:00:12.719Z,97601.34
2023-04-15T15:02:47.489Z,97603.75
2023-04-15T15:05:14.854Z,97603.38
2023-04-15T15:07:41.866Z,97611.53
2023-04-15T15:10:09.016Z,97614.78
2023-04-15T15:12:36.044Z,97619.03
2023-04-15T15:15:12.249Z,97628.53
2023-04-15T15:17:43.169Z,97632.34
2023-04-15T15:20:10.599Z,97629.69
2023-04-15T15:22:37.561Z,97633.97
2023-04-15T15:25:05.214Z,97634.91
2023-04-15T15:27:32.175Z,97646.19
2023-04-15T15:29:59.991Z,97640.91
2023-04-15T15:32:27.036Z,97640.50
2023-04-15T15:34:54.053Z,97641.91
2023-04-15T15:37:21.300Z,97653.53
2023-04-15T15:39:49.069Z,97659.22
2023-04-15T15:42:16.332Z,97661.50
2023-04-15T15:44:43.346Z,97668.63
2023-04-15T15:47:10.544Z,97680.75
2023-04-15T15:49:37.907Z,97685.13
2023-04-15T15:52:05.083Z,97693.66
2023-04-15T15:54:32.226Z,97688.78
2023-04-15T15:56:59.195Z,97706.88
2023-04-15T15:59:26.141Z,97710.34
2023-04-15T16:01:53.800Z,97714.25
2023-04-15T16:04:21.842Z,97725.91
2023-04-15T16:06:48.991Z,97726.09
2023-04-15T16:09:16.086Z,97725.28
2023-04-15T16:11:44.588Z,97720.59
2023-04-15T16:14:11.890Z,97725.69
2023-04-15T16:16:41.946Z,97721.75
2023-04-15T16:19:09.508Z,97725.84
2023-04-15T16:21:36.581Z,97723.16
2023-04-15T16:24:03.571Z,97728.94
2023-04-15T16:26:30.508Z,97735.44
2023-04-15T16:28:57.824Z,97737.47
2023-04-15T16:31:24.893Z,97737.53
2023-04-15T16:33:51.953Z,97728.97
2023-04-15T16:36:19.532Z,97731.38
2023-04-15T16:38:48.598Z,97741.34
2023-04-15T16:41:16.440Z,97745.91
2023-04-15T16:43:43.973Z,97750.38
2023-04-15T16:46:11.971Z,97756.63
2023-04-15T16:48:38.981Z,97754.41
2023-04-15T16:51:06.099Z,97762.41
2023-04-15T16:53:33.067Z,97763.44
2023-04-15T16:56:00.451Z,97764.47
2023-04-15T16:58:28.956Z,97765.84
2023-04-15T17:00:56.264Z,97773.19
2023-04-15T17:03:26.814Z,97772.81
2023-04-15T17:05:56.008Z,97775.88
2023-04-15T17:08:23.449Z,97780.75
2023-04-15T17:10:51.770Z,97780.75
2023-04-15T17:13:18.959Z,97784.84
2023-04-15T17:15:46.194Z,97782.00
2023-04-15T17:18:15.770Z,97792.59
2023-04-15T17:20:42.776Z,97796.88
2023-04-15T17:23:10.375Z,97800.97
2023-04-15T17:25:38.017Z,97802.38
2023-04-15T17:28:05.263Z,97815.59
2023-04-15T17:30:33.451Z,97820.34
2023-04-15T17:33:00.760Z,97817.81
2023-04-15T17:35:27.821Z,97833.59
2023-04-15T17:37:54.773Z,97835.06
2023-04-15T17:40:22.028Z,97838.19
2023-04-15T17:42:49.459Z,97841.44
2023-04-15T17:45:17.164Z,97838.75
2023-04-15T17:47:44.164Z,97840.66
2023-04-15T17:50:11.500Z,97846.13
2023-04-15T17:52:38.939Z,97844.16
2023-04-15T17:55:07.675Z,97855.72
2023-04-15T17:57:34.642Z,97860.13
2023-04-15T18:00:02.000Z,97855.63
2023-04-15T18:02:29.260Z,97854.31
2023-04-15T18:04:56.741Z,97864.78
2023-04-15T18:07:24.009Z,97862.97
2023-04-15T18:09:53.169Z,97870.50
2023-04-15T18:12:21.005Z,97877.94
2023-04-15T18:14:48.010Z,97879.66
2023-04-15T18:17:14.997Z,97880.59
2023-04-15T18:19:41.972Z,97882.84
2023-04-15T18:22:09.104Z,97883.94
2023-04-15T18:24:36.474Z,97889.25
2023-04-15T18:27:03.876Z,97891.13
2023-04-15T18:29:31.385Z,97891.72
2023-04-15T18:32:03.000Z,97899.50
2023-04-15T18:34:30.323Z,97911.25
2023-04-15T18:36:58.962Z,97905.97
2023-04-15T18:39:27.367Z,97912.09
2023-04-15T18:41:56.170Z,97914.53
2023-04-15T18:44:23.763Z,97911.31
2023-04-15T18:46:50.865Z,97915.53
2023-04-15T18:49:18.554Z,97921.38
2023-04-15T18:51:45.581Z,97924.13
2023-04-15T18:54:31.549Z,97924.09
2023-04-15T18:56:59.520Z,97929.63
2023-04-15T18:59:30.486Z,97931.31
2023-04-15T19:02:00.016Z,97929.47
2023-04-15T19:04:29.353Z,97931.31
2023-04-15T19:06:56.806Z,97932.56
2023-04-15T19:09:24.383Z,97945.16
2023-04-15T19:11:51.386Z,97950.25
2023-04-15T19:14:18.602Z,97955.91
2023-04-15T19:16:45.905Z,97958.66
2023-04-15T19:19:14.586Z,97956.97
2023-04-15T19:21:42.043Z,97961.44
2023-04-15T19:24:09.056Z,97963.94
2023-04-15T19:26:37.137Z,97961.28
2023-04-15T19:29:04.550Z,97971.97
2023-04-15T19:31:31.965Z,97965.75
2023-04-15T19:33:58.998Z,97970.94
2023-04-15T19:36:28.107Z,97968.03
2023-04-15T19:38:55.059Z,97979.66
2023-04-15T19:41:22.139Z,97965.88
2023-04-15T19:43:49.148Z,97970.28
2023-04-15T19:46:16.562Z,97974.06
2023-04-15T19:48:43.631Z,97975.94
2023-04-15T19:51:10.784Z,97973.59
2023-04-15T19:53:37.804Z,97972.84
2023-04-15T19:56:05.398Z,97976.59
2023-04-15T19:58:32.564Z,97976.00
2023-04-15T20:01:01.377Z,97973.38
2023-04-15T20:03:28.554Z,97980.06
2023-04-15T20:05:55.790Z,97980.84
2023-04-15T20:08:22.918Z,97973.47
2023-04-15T20:10:50.036Z,97986.91
2023-04-15T20:13:17.442Z,97983.44
2023-04-15T20:15:45.091Z,97986.34
2023-04-15T20:18:12.552Z,97985.56
2023-04-15T20:20:40.500Z,97973.16
2023-04-15T20:23:07.643Z,97979.53
2023-04-15T20:25:35.151Z,97972.97
2023-04-15T20:28:02.692Z,97978.03
2023-04-15T20:30:29.769Z,97977.84
2023-04-15T20:32:57.054Z,97984.91
2023-04-15T20:35:27.953Z,97985.50
2023-04-15T20:37:54.943Z,97984.47
2023-04-15T20:40:22.989Z,97981.88
2023-04-15T20:42:50.048Z,97984.16
2023-04-15T20:45:17.112Z,97993.31
2023-04-15T20:47:44.751Z,97984.16
2023-04-15T20:50:12.213Z,97993.47
2023-04-15T20:52:39.809Z,97993.88
2023-04-15T20:55:07.903Z,97994.34
2023-04-15T20:57:35.458Z,97996.16
2023-04-15T21:00:02.954Z,97999.69
2023-04-15T21:02:30.145Z,97999.59
2023-04-15T21:04:59.348Z,98004.78
2023-04-15T21:07:26.459Z,98004.53
2023-04-15T21:09:55.402Z,98001.28
2023-04-15T21:12:22.431Z,98001.53
2023-04-15T21:14:49.895Z,98006.16
2023-04-15T21:17:19.473Z,98004.38
2023-04-15T21:19:46.505Z,98016.13
2023-04-15T21:22:13.572Z,98015.13
2023-04-15T21:24:40.579Z,98014.13
2023-04-15T21:27:07.600Z,98022.38
2023-04-15T21:29:34.650Z,98023.13
2023-04-15T21:32:01.782Z,98023.28
2023-04-15T21:34:29.021Z,98027.81
2023-04-15T21:36:56.498Z,98028.72
2023-04-15T21:39:23.927Z,98033.69
2023-04-15T21:41:51.381Z,98032.72
2023-04-15T21:44:18.343Z,98033.75
2023-04-15T21:46:46.198Z,98039.91
2023-04-15T21:49:13.930Z,98036.00
2023-04-15T21:51:41.275Z,98045.44
2023-04-15T21:54:08.713Z,98048.53
2023-04-15T21:56:37.868Z,98050.78
2023-04-15T21:59:05.447Z,98050.19
2023-04-15T22:01:32.529Z,98051.81
2023-04-15T22:03:59.625Z,98054.72
2023-04-15T22:06:27.254Z,98058.38
2023-04-15T22:09:11.317Z,98057.88
2023-04-15T22:11:39.796Z,98058.09
2023-04-15T22:14:07.245Z,98059.38
2023-04-15T22:16:34.601Z,98062.88
2023-04-15T22:19:02.784Z,98067.00
2023-04-15T22:21:30.267Z,98072.50
2023-04-15T22:24:38.013Z,98064.09
2023-04-15T22:26:45.281Z,98068.78
2023-04-15T22:29:12.270Z,98073.06
2023-04-15T22:31:39.260Z,98078.34
2023-04-15T22:34:06.423Z,98082.91
2023-04-15T22:36:33.541Z,98082.88
2023-04-15T22:39:00.513Z,98084.78
2023-04-15T22:41:27.450Z,98082.28
2023-04-15T22:43:54.378Z,98088.66
2023-04-15T22:46:21.744Z,98092.88
2023-04-15T22:48:48.712Z,98095.44
2023-04-15T22:51:22.908Z,98101.47
2023-04-15T22:53:50.669Z,98093.22
2023-04-15T22:56:22.002Z,98092.56
2023-04-15T22:58:50.301Z,98098.41
2023-04-15T23:01:18.218Z,98087.56
2023-04-15T23:03:56.387Z,98091.47
2023-04-15T23:06:32.402Z,98089.41
2023-04-15T23:08:59.783Z,98093.97
2023-04-15T23:11:27.138Z,98091.94
2023-04-15T23:13:54.462Z,98100.09
2023-04-15T23:16:22.791Z,98105.22
2023-04-15T23:18:49.771Z,98098.94
2023-04-15T23:21:17.134Z,98106.97
2023-04-15T23:23:44.535Z,98103.19
2023-04-15T23:26:11.552Z,98107.44
2023-04-15T23:28:38.498Z,98108.84
2023-04-15T23:31:06.917Z,98117.56
2023-04-15T23:33:33.823Z,98107.59
2023-04-15T23:36:00.870Z,98115.22
2023-04-15T23:38:28.251Z,98123.72
2023-04-15T23:40:55.225Z,98113.59
2023-04-15T23:43:22.544Z,98118.13
2023-04-15T23:45:49.964Z,98123.91
2023-04-15T23:48:17.301Z,98116.50
2023-04-15T23:50:44.356Z,98128.28
2023-04-15T23:53:11.644Z,98126.03
2023-04-15T23:55:38.969Z,98124.47
2023-04-15T23:58:06.259Z,98124.31
